Huvudsida
METAR-TAF:

METAR-TAF

Flygplatser :

Grootfontein, Namibia

latitud: 19-36S, longitud: 018-07E, höjd: 1411 m

Aktuellt väderrapport

Denna rapport gjordes för 1 timme och 29 minuter sedan, klockan 08:00 UTC
Vind 10 kt från ost
Temperatur 15°C
Fuktighet 48%
Tryck 1030 hPa
Sikt 10 km eller mer
Inga moln under 1 500 m eller inga cumulonimbus

METAR: FYGF 250800Z 09010KT CAVOK 15/04 Q1030

Tid: 11:29 (09:29 UTC)

Väderprognos

Denna rapport gjordes för 16 timmar och 29 minuter sedan, klockan 17:00 UTC
Prognos gäller från 24 kl. 18 UTC till 25 kl. 03 UTC
Vind 4 kt från ost
Sikt 10 km eller mer
Inga moln under 1 500 m eller inga cumulonimbus

TAF: FYGF 241700Z 2418/2503 10004KT CAVOK

Aktuella väderrapporter och prognoser från 4000 flygplatser (METAR- och TAF-rapporter).

De tillgängliga stationerna syns som gula och röda prickar på kartan.

För musen över prickarna för att se namnen på stationerna.

Klicka sedan för att få väderrapporter och prognoser.

För att ändra kartan: Klicka på de gröna knapparna med ett svart kors på för att zooma in; den gröna knappen med ett streck på för att zooma ut; eller på de gröna pilarna för angränsande kartor.


METAR-TAF: